sensor_id;sensor_type;location;lat;lon;timestamp;temperature;humidity
3275;DHT22;1649;53.672;10.064;2022-12-26T00:00:10;7.00;99.90
3275;DHT22;1649;53.672;10.064;2022-12-26T00:02:36;6.90;99.90
3275;DHT22;1649;53.672;10.064;2022-12-26T00:05:02;7.00;99.90
3275;DHT22;1649;53.672;10.064;2022-12-26T00:07:28;7.00;99.90
3275;DHT22;1649;53.672;10.064;2022-12-26T00:09:53;7.00;99.90
3275;DHT22;1649;53.672;10.064;2022-12-26T00:12:19;7.00;99.90
3275;DHT22;1649;53.672;10.064;2022-12-26T00:14:44;7.00;99.90
3275;DHT22;1649;53.672;10.064;2022-12-26T00:17:10;7.00;99.90
3275;DHT22;1649;53.672;10.064;2022-12-26T00:19:35;7.00;99.90
3275;DHT22;1649;53.672;10.064;2022-12-26T00:22:01;7.00;99.90
3275;DHT22;1649;53.672;10.064;2022-12-26T00:24:26;7.00;99.90
3275;DHT22;1649;53.672;10.064;2022-12-26T00:26:52;7.00;99.90
3275;DHT22;1649;53.672;10.064;2022-12-26T00:29:17;7.00;99.90
3275;DHT22;1649;53.672;10.064;2022-12-26T00:31:43;7.00;99.90
3275;DHT22;1649;53.672;10.064;2022-12-26T00:34:09;7.00;99.90
3275;DHT22;1649;53.672;10.064;2022-12-26T00:36:34;7.00;99.90
3275;DHT22;1649;53.672;10.064;2022-12-26T00:39:02;6.90;99.90
3275;DHT22;1649;53.672;10.064;2022-12-26T00:41:28;6.90;99.90
3275;DHT22;1649;53.672;10.064;2022-12-26T00:43:54;6.90;99.90
3275;DHT22;1649;53.672;10.064;2022-12-26T00:46:20;6.90;99.90
3275;DHT22;1649;53.672;10.064;2022-12-26T00:48:46;6.90;99.90
3275;DHT22;1649;53.672;10.064;2022-12-26T00:51:11;7.00;99.90
3275;DHT22;1649;53.672;10.064;2022-12-26T00:53:37;7.00;99.90
3275;DHT22;1649;53.672;10.064;2022-12-26T00:56:03;7.10;99.90
3275;DHT22;1649;53.672;10.064;2022-12-26T00:58:28;7.10;99.90
3275;DHT22;1649;53.672;10.064;2022-12-26T01:00:54;7.00;99.90
3275;DHT22;1649;53.672;10.064;2022-12-26T01:03:20;7.00;99.90
3275;DHT22;1649;53.672;10.064;2022-12-26T01:05:48;7.10;99.90
3275;DHT22;1649;53.672;10.064;2022-12-26T01:08:14;7.00;99.90
3275;DHT22;1649;53.672;10.064;2022-12-26T01:10:41;7.00;99.90
3275;DHT22;1649;53.672;10.064;2022-12-26T01:13:07;7.00;99.90
3275;DHT22;1649;53.672;10.064;2022-12-26T01:15:33;7.10;99.90
3275;DHT22;1649;53.672;10.064;2022-12-26T01:17:59;7.10;99.90
3275;DHT22;1649;53.672;10.064;2022-12-26T01:20:25;7.10;99.90
3275;DHT22;1649;53.672;10.064;2022-12-26T01:22:51;7.10;99.90
3275;DHT22;1649;53.672;10.064;2022-12-26T01:25:16;7.10;99.90
3275;DHT22;1649;53.672;10.064;2022-12-26T01:27:42;7.10;99.90
3275;DHT22;1649;53.672;10.064;2022-12-26T01:30:08;7.20;99.90
3275;DHT22;1649;53.672;10.064;2022-12-26T01:32:33;7.20;99.90
3275;DHT22;1649;53.672;10.064;2022-12-26T01:34:59;7.20;99.90
3275;DHT22;1649;53.672;10.064;2022-12-26T01:37:24;7.20;99.90
3275;DHT22;1649;53.672;10.064;2022-12-26T01:39:51;7.20;99.90
3275;DHT22;1649;53.672;10.064;2022-12-26T01:42:19;7.20;99.90
3275;DHT22;1649;53.672;10.064;2022-12-26T01:53:02;7.20;99.90
3275;DHT22;1649;53.672;10.064;2022-12-26T01:55:30;7.20;99.90
3275;DHT22;1649;53.672;10.064;2022-12-26T01:58:01;7.20;99.90
3275;DHT22;1649;53.672;10.064;2022-12-26T02:00:28;7.20;99.90
3275;DHT22;1649;53.672;10.064;2022-12-26T02:02:54;7.30;99.90
3275;DHT22;1649;53.672;10.064;2022-12-26T02:05:38;7.30;99.90
3275;DHT22;1649;53.672;10.064;2022-12-26T02:08:13;7.30;99.90
3275;DHT22;1649;53.672;10.064;2022-12-26T02:10:55;7.30;99.90
3275;DHT22;1649;53.672;10.064;2022-12-26T02:13:23;7.40;99.90
3275;DHT22;1649;53.672;10.064;2022-12-26T02:15:49;7.30;99.90
3275;DHT22;1649;53.672;10.064;2022-12-26T02:18:14;7.40;99.90
3275;DHT22;1649;53.672;10.064;2022-12-26T02:23:47;7.40;99.90
3275;DHT22;1649;53.672;10.064;2022-12-26T02:37:55;7.40;99.90
3275;DHT22;1649;53.672;10.064;2022-12-26T02:40:34;7.40;99.90
3275;DHT22;1649;53.672;10.064;2022-12-26T02:43:13;7.40;99.90
3275;DHT22;1649;53.672;10.064;2022-12-26T02:45:57;7.50;99.90
3275;DHT22;1649;53.672;10.064;2022-12-26T02:49:02;7.50;99.90
3275;DHT22;1649;53.672;10.064;2022-12-26T02:54:45;7.50;99.90
3275;DHT22;1649;53.672;10.064;2022-12-26T02:58:19;7.50;99.90
3275;DHT22;1649;53.672;10.064;2022-12-26T03:00:45;7.50;99.90
3275;DHT22;1649;53.672;10.064;2022-12-26T03:03:33;7.50;99.90
3275;DHT22;1649;53.672;10.064;2022-12-26T03:06:21;7.50;99.90
3275;DHT22;1649;53.672;10.064;2022-12-26T03:09:10;7.50;99.90
3275;DHT22;1649;53.672;10.064;2022-12-26T03:12:35;7.50;99.90
3275;DHT22;1649;53.672;10.064;2022-12-26T03:15:24;7.50;99.90
3275;DHT22;1649;53.672;10.064;2022-12-26T03:18:02;7.60;99.90
3275;DHT22;1649;53.672;10.064;2022-12-26T03:20:33;7.60;99.90
3275;DHT22;1649;53.672;10.064;2022-12-26T03:23:12;7.50;99.90
3275;DHT22;1649;53.672;10.064;2022-12-26T03:25:44;7.50;99.90
3275;DHT22;1649;53.672;10.064;2022-12-26T03:28:31;7.50;99.90
3275;DHT22;1649;53.672;10.064;2022-12-26T03:30:59;7.50;99.90
3275;DHT22;1649;53.672;10.064;2022-12-26T03:33:29;7.50;99.90
3275;DHT22;1649;53.672;10.064;2022-12-26T03:39:19;7.60;99.90
3275;DHT22;1649;53.672;10.064;2022-12-26T03:42:09;7.60;99.90
3275;DHT22;1649;53.672;10.064;2022-12-26T03:45:08;7.60;99.90
3275;DHT22;1649;53.672;10.064;2022-12-26T03:48:05;7.60;99.90
3275;DHT22;1649;53.672;10.064;2022-12-26T03:50:57;7.60;99.90
3275;DHT22;1649;53.672;10.064;2022-12-26T03:53:57;7.60;99.90
3275;DHT22;1649;53.672;10.064;2022-12-26T03:56:51;7.60;99.90
3275;DHT22;1649;53.672;10.064;2022-12-26T04:00:07;7.60;99.90
3275;DHT22;1649;53.672;10.064;2022-12-26T04:02:54;7.60;99.90
3275;DHT22;1649;53.672;10.064;2022-12-26T04:05:44;7.60;99.90
3275;DHT22;1649;53.672;10.064;2022-12-26T04:08:44;7.60;99.90
3275;DHT22;1649;53.672;10.064;2022-12-26T04:11:29;7.60;99.90
3275;DHT22;1649;53.672;10.064;2022-12-26T04:20:21;7.60;99.90
3275;DHT22;1649;53.672;10.064;2022-12-26T04:22:56;7.70;99.90
3275;DHT22;1649;53.672;10.064;2022-12-26T04:28:47;7.60;99.90
3275;DHT22;1649;53.672;10.064;2022-12-26T04:31:47;7.60;99.90
3275;DHT22;1649;53.672;10.064;2022-12-26T04:34:43;7.70;99.90
3275;DHT22;1649;53.672;10.064;2022-12-26T04:37:29;7.70;99.90
3275;DHT22;1649;53.672;10.064;2022-12-26T04:40:19;7.70;99.90
3275;DHT22;1649;53.672;10.064;2022-12-26T04:43:06;7.70;99.90
3275;DHT22;1649;53.672;10.064;2022-12-26T04:45:51;7.70;99.90
3275;DHT22;1649;53.672;10.064;2022-12-26T04:48:16;7.70;99.90
3275;DHT22;1649;53.672;10.064;2022-12-26T04:51:00;7.70;99.90
3275;DHT22;1649;53.672;10.064;2022-12-26T04:53:26;7.70;99.90
3275;DHT22;1649;53.672;10.064;2022-12-26T04:55:51;7.70;99.90
3275;DHT22;1649;53.672;10.064;2022-12-26T04:58:17;7.80;99.90
3275;DHT22;1649;53.672;10.064;2022-12-26T05:00:43;7.80;99.90
3275;DHT22;1649;53.672;10.064;2022-12-26T05:03:12;7.80;99.90
3275;DHT22;1649;53.672;10.064;2022-12-26T05:05:57;7.80;99.90
3275;DHT22;1649;53.672;10.064;2022-12-26T05:08:43;7.80;99.90
3275;DHT22;1649;53.672;10.064;2022-12-26T05:11:29;7.80;99.90
3275;DHT22;1649;53.672;10.064;2022-12-26T05:13:56;7.80;99.90
3275;DHT22;1649;53.672;10.064;2022-12-26T05:16:23;7.80;99.90
3275;DHT22;1649;53.672;10.064;2022-12-26T05:19:16;7.80;99.90
3275;DHT22;1649;53.672;10.064;2022-12-26T05:22:00;7.90;99.90
3275;DHT22;1649;53.672;10.064;2022-12-26T05:24:45;7.90;99.90
3275;DHT22;1649;53.672;10.064;2022-12-26T05:27:36;7.90;99.90
3275;DHT22;1649;53.672;10.064;2022-12-26T05:30:21;7.90;99.90
3275;DHT22;1649;53.672;10.064;2022-12-26T05:32:46;7.90;99.90
3275;DHT22;1649;53.672;10.064;2022-12-26T05:35:32;7.90;99.90
3275;DHT22;1649;53.672;10.064;2022-12-26T05:37:58;7.90;99.90
3275;DHT22;1649;53.672;10.064;2022-12-26T05:40:23;7.90;99.90
3275;DHT22;1649;53.672;10.064;2022-12-26T05:42:49;7.90;99.90
3275;DHT22;1649;53.672;10.064;2022-12-26T05:45:14;7.90;99.90
3275;DHT22;1649;53.672;10.064;2022-12-26T05:47:40;7.90;99.90
3275;DHT22;1649;53.672;10.064;2022-12-26T05:50:06;8.00;99.90
3275;DHT22;1649;53.672;10.064;2022-12-26T05:52:31;8.00;99.90
3275;DHT22;1649;53.672;10.064;2022-12-26T05:54:57;8.00;99.90
3275;DHT22;1649;53.672;10.064;2022-12-26T05:57:22;8.00;99.90
3275;DHT22;1649;53.672;10.064;2022-12-26T05:59:48;8.00;99.90
3275;DHT22;1649;53.672;10.064;2022-12-26T06:02:13;8.00;99.90
3275;DHT22;1649;53.672;10.064;2022-12-26T06:04:39;8.00;99.90
3275;DHT22;1649;53.672;10.064;2022-12-26T06:07:04;8.00;99.90
3275;DHT22;1649;53.672;10.064;2022-12-26T06:09:30;8.00;99.90
3275;DHT22;1649;53.672;10.064;2022-12-26T06:11:55;8.00;99.90
3275;DHT22;1649;53.672;10.064;2022-12-26T06:14:21;8.00;99.90
3275;DHT22;1649;53.672;10.064;2022-12-26T06:16:46;8.00;99.90
3275;DHT22;1649;53.672;10.064;2022-12-26T06:19:12;8.00;99.90
3275;DHT22;1649;53.672;10.064;2022-12-26T06:21:37;8.00;99.90
3275;DHT22;1649;53.672;10.064;2022-12-26T06:24:03;8.00;99.90
3275;DHT22;1649;53.672;10.064;2022-12-26T06:26:29;8.00;99.90
3275;DHT22;1649;53.672;10.064;2022-12-26T06:28:54;8.10;99.90
3275;DHT22;1649;53.672;10.064;2022-12-26T06:31:22;8.10;99.90
3275;DHT22;1649;53.672;10.064;2022-12-26T06:33:49;8.10;99.90
3275;DHT22;1649;53.672;10.064;2022-12-26T06:36:18;8.10;99.90
3275;DHT22;1649;53.672;10.064;2022-12-26T06:38:44;8.10;99.90
3275;DHT22;1649;53.672;10.064;2022-12-26T06:41:12;8.10;99.90
3275;DHT22;1649;53.672;10.064;2022-12-26T06:43:38;8.10;99.90
3275;DHT22;1649;53.672;10.064;2022-12-26T06:46:05;8.10;99.90
3275;DHT22;1649;53.672;10.064;2022-12-26T06:48:34;8.10;99.90
3275;DHT22;1649;53.672;10.064;2022-12-26T06:51:15;8.20;99.90
3275;DHT22;1649;53.672;10.064;2022-12-26T06:53:41;8.20;99.90
3275;DHT22;1649;53.672;10.064;2022-12-26T06:56:19;8.20;99.90
3275;DHT22;1649;53.672;10.064;2022-12-26T06:58:45;8.20;99.90
3275;DHT22;1649;53.672;10.064;2022-12-26T07:01:14;8.20;99.90
3275;DHT22;1649;53.672;10.064;2022-12-26T07:03:40;8.20;99.90
3275;DHT22;1649;53.672;10.064;2022-12-26T07:06:28;8.20;99.90
3275;DHT22;1649;53.672;10.064;2022-12-26T07:08:56;8.20;99.90
3275;DHT22;1649;53.672;10.064;2022-12-26T07:11:25;8.20;99.90
3275;DHT22;1649;53.672;10.064;2022-12-26T07:13:52;8.20;99.90
3275;DHT22;1649;53.672;10.064;2022-12-26T07:16:18;8.20;99.90
3275;DHT22;1649;53.672;10.064;2022-12-26T07:18:44;8.20;99.90
3275;DHT22;1649;53.672;10.064;2022-12-26T07:21:12;8.30;99.90
3275;DHT22;1649;53.672;10.064;2022-12-26T07:23:39;8.30;99.90
3275;DHT22;1649;53.672;10.064;2022-12-26T07:26:05;8.20;99.90
3275;DHT22;1649;53.672;10.064;2022-12-26T07:28:30;8.30;99.90
3275;DHT22;1649;53.672;10.064;2022-12-26T07:30:56;8.30;99.90
3275;DHT22;1649;53.672;10.064;2022-12-26T07:33:24;8.30;99.90
3275;DHT22;1649;53.672;10.064;2022-12-26T07:35:49;8.30;99.90
3275;DHT22;1649;53.672;10.064;2022-12-26T07:38:15;8.30;99.90
3275;DHT22;1649;53.672;10.064;2022-12-26T07:40:40;8.40;99.90
3275;DHT22;1649;53.672;10.064;2022-12-26T07:43:06;8.40;99.90
3275;DHT22;1649;53.672;10.064;2022-12-26T07:45:32;8.40;99.90
3275;DHT22;1649;53.672;10.064;2022-12-26T07:47:57;8.40;99.90
3275;DHT22;1649;53.672;10.064;2022-12-26T07:50:24;8.40;99.90
3275;DHT22;1649;53.672;10.064;2022-12-26T07:52:50;8.50;99.90
3275;DHT22;1649;53.672;10.064;2022-12-26T07:55:16;8.40;99.90
3275;DHT22;1649;53.672;10.064;2022-12-26T07:57:41;8.40;99.90
3275;DHT22;1649;53.672;10.064;2022-12-26T08:00:08;8.50;99.90
3275;DHT22;1649;53.672;10.064;2022-12-26T08:02:33;8.50;99.90
3275;DHT22;1649;53.672;10.064;2022-12-26T08:04:59;8.50;99.90
3275;DHT22;1649;53.672;10.064;2022-12-26T08:07:24;8.50;99.90
3275;DHT22;1649;53.672;10.064;2022-12-26T08:09:50;8.50;99.90
3275;DHT22;1649;53.672;10.064;2022-12-26T08:12:16;8.50;99.90
3275;DHT22;1649;53.672;10.064;2022-12-26T08:14:45;8.50;99.90
3275;DHT22;1649;53.672;10.064;2022-12-26T08:17:11;8.50;99.90
3275;DHT22;1649;53.672;10.064;2022-12-26T08:19:37;8.60;99.90
3275;DHT22;1649;53.672;10.064;2022-12-26T08:22:02;8.60;99.90
3275;DHT22;1649;53.672;10.064;2022-12-26T08:24:28;8.60;99.90
3275;DHT22;1649;53.672;10.064;2022-12-26T08:26:53;8.60;99.90
3275;DHT22;1649;53.672;10.064;2022-12-26T08:29:19;8.70;99.90
3275;DHT22;1649;53.672;10.064;2022-12-26T08:31:44;8.70;99.90
3275;DHT22;1649;53.672;10.064;2022-12-26T08:34:10;8.70;99.90
3275;DHT22;1649;53.672;10.064;2022-12-26T08:36:35;8.70;99.90
3275;DHT22;1649;53.672;10.064;2022-12-26T08:39:02;8.70;99.90
3275;DHT22;1649;53.672;10.064;2022-12-26T08:41:28;8.70;99.90
3275;DHT22;1649;53.672;10.064;2022-12-26T08:43:53;8.80;99.90
3275;DHT22;1649;53.672;10.064;2022-12-26T08:46:20;8.80;99.90
3275;DHT22;1649;53.672;10.064;2022-12-26T08:48:46;8.80;99.90
3275;DHT22;1649;53.672;10.064;2022-12-26T08:51:21;8.60;99.90
3275;DHT22;1649;53.672;10.064;2022-12-26T08:53:48;8.80;99.90
3275;DHT22;1649;53.672;10.064;2022-12-26T08:56:16;8.80;99.90
3275;DHT22;1649;53.672;10.064;2022-12-26T08:58:43;8.80;99.90
3275;DHT22;1649;53.672;10.064;2022-12-26T09:01:19;8.80;99.90
3275;DHT22;1649;53.672;10.064;2022-12-26T09:03:45;8.80;99.90
3275;DHT22;1649;53.672;10.064;2022-12-26T09:06:13;8.80;99.90
3275;DHT22;1649;53.672;10.064;2022-12-26T09:08:39;8.80;99.90
3275;DHT22;1649;53.672;10.064;2022-12-26T09:11:11;8.80;99.90
3275;DHT22;1649;53.672;10.064;2022-12-26T09:13:37;8.80;99.90
3275;DHT22;1649;53.672;10.064;2022-12-26T09:16:11;8.90;99.90
3275;DHT22;1649;53.672;10.064;2022-12-26T09:18:37;8.90;99.90
3275;DHT22;1649;53.672;10.064;2022-12-26T09:21:04;8.90;99.90
3275;DHT22;1649;53.672;10.064;2022-12-26T09:23:30;8.90;99.90
3275;DHT22;1649;53.672;10.064;2022-12-26T09:26:06;8.90;99.90
3275;DHT22;1649;53.672;10.064;2022-12-26T09:28:32;9.00;99.90
3275;DHT22;1649;53.672;10.064;2022-12-26T09:30:59;8.90;99.90
3275;DHT22;1649;53.672;10.064;2022-12-26T09:33:25;9.00;99.90
3275;DHT22;1649;53.672;10.064;2022-12-26T09:35:51;8.90;99.90
3275;DHT22;1649;53.672;10.064;2022-12-26T09:38:16;9.00;99.90
3275;DHT22;1649;53.672;10.064;2022-12-26T09:49:03;9.00;99.90
3275;DHT22;1649;53.672;10.064;2022-12-26T09:51:30;9.00;99.90
3275;DHT22;1649;53.672;10.064;2022-12-26T09:53:57;9.00;99.90
3275;DHT22;1649;53.672;10.064;2022-12-26T09:56:25;9.00;99.90
3275;DHT22;1649;53.672;10.064;2022-12-26T09:58:55;9.00;99.90
3275;DHT22;1649;53.672;10.064;2022-12-26T10:01:27;9.00;99.90
3275;DHT22;1649;53.672;10.064;2022-12-26T10:03:56;9.00;99.90
3275;DHT22;1649;53.672;10.064;2022-12-26T10:06:25;9.00;99.90
3275;DHT22;1649;53.672;10.064;2022-12-26T10:17:43;9.10;99.90
3275;DHT22;1649;53.672;10.064;2022-12-26T10:23:11;9.10;99.90
3275;DHT22;1649;53.672;10.064;2022-12-26T10:31:20;9.20;99.90
3275;DHT22;1649;53.672;10.064;2022-12-26T10:34:05;9.20;99.90
3275;DHT22;1649;53.672;10.064;2022-12-26T10:36:49;9.20;99.90
3275;DHT22;1649;53.672;10.064;2022-12-26T10:39:24;9.10;99.90
3275;DHT22;1649;53.672;10.064;2022-12-26T10:41:53;9.10;99.90
3275;DHT22;1649;53.672;10.064;2022-12-26T10:44:21;9.10;99.90
3275;DHT22;1649;53.672;10.064;2022-12-26T10:47:02;9.10;99.90
3275;DHT22;1649;53.672;10.064;2022-12-26T10:49:28;9.20;99.90
3275;DHT22;1649;53.672;10.064;2022-12-26T10:51:56;9.20;99.90
3275;DHT22;1649;53.672;10.064;2022-12-26T10:54:23;9.20;99.90
3275;DHT22;1649;53.672;10.064;2022-12-26T10:56:50;9.30;99.90
3275;DHT22;1649;53.672;10.064;2022-12-26T10:59:20;9.40;99.90
3275;DHT22;1649;53.672;10.064;2022-12-26T11:01:46;9.50;99.90
3275;DHT22;1649;53.672;10.064;2022-12-26T11:04:24;9.60;99.90
3275;DHT22;1649;53.672;10.064;2022-12-26T11:06:51;9.70;99.90
3275;DHT22;1649;53.672;10.064;2022-12-26T11:09:39;9.70;99.90
3275;DHT22;1649;53.672;10.064;2022-12-26T11:12:23;9.60;99.90
3275;DHT22;1649;53.672;10.064;2022-12-26T11:14:56;9.60;99.90
3275;DHT22;1649;53.672;10.064;2022-12-26T11:17:26;9.50;99.90
3275;DHT22;1649;53.672;10.064;2022-12-26T11:22:38;9.50;99.90
3275;DHT22;1649;53.672;10.064;2022-12-26T11:27:32;9.50;99.90
3275;DHT22;1649;53.672;10.064;2022-12-26T11:30:14;9.50;99.90
3275;DHT22;1649;53.672;10.064;2022-12-26T11:32:42;9.50;99.90
3275;DHT22;1649;53.672;10.064;2022-12-26T11:35:20;9.40;99.90
3275;DHT22;1649;53.672;10.064;2022-12-26T11:37:50;9.50;99.90
3275;DHT22;1649;53.672;10.064;2022-12-26T11:40:36;9.50;99.90
3275;DHT22;1649;53.672;10.064;2022-12-26T11:43:06;9.40;99.90
3275;DHT22;1649;53.672;10.064;2022-12-26T11:45:41;9.40;99.90
3275;DHT22;1649;53.672;10.064;2022-12-26T11:48:23;9.40;99.90
3275;DHT22;1649;53.672;10.064;2022-12-26T11:50:49;9.40;99.90
3275;DHT22;1649;53.672;10.064;2022-12-26T11:53:18;9.50;99.90
3275;DHT22;1649;53.672;10.064;2022-12-26T11:55:45;9.40;99.90
3275;DHT22;1649;53.672;10.064;2022-12-26T11:58:21;9.40;99.90
3275;DHT22;1649;53.672;10.064;2022-12-26T12:03:35;9.40;99.90
3275;DHT22;1649;53.672;10.064;2022-12-26T12:06:38;9.40;99.90
3275;DHT22;1649;53.672;10.064;2022-12-26T12:09:31;9.50;99.90
3275;DHT22;1649;53.672;10.064;2022-12-26T12:15:42;9.40;99.90
3275;DHT22;1649;53.672;10.064;2022-12-26T12:18:12;9.40;99.90
3275;DHT22;1649;53.672;10.064;2022-12-26T12:29:58;9.30;99.90
3275;DHT22;1649;53.672;10.064;2022-12-26T12:38:24;9.30;99.90
3275;DHT22;1649;53.672;10.064;2022-12-26T12:41:37;9.20;99.90
3275;DHT22;1649;53.672;10.064;2022-12-26T12:43:49;9.20;99.90
3275;DHT22;1649;53.672;10.064;2022-12-26T12:54:56;9.20;99.90
3275;DHT22;1649;53.672;10.064;2022-12-26T13:00:19;9.30;99.90
3275;DHT22;1649;53.672;10.064;2022-12-26T13:02:59;9.40;99.90
3275;DHT22;1649;53.672;10.064;2022-12-26T13:08:38;9.50;99.90
3275;DHT22;1649;53.672;10.064;2022-12-26T13:11:37;9.50;99.90
3275;DHT22;1649;53.672;10.064;2022-12-26T13:14:23;9.50;99.90
3275;DHT22;1649;53.672;10.064;2022-12-26T13:17:06;9.50;99.90
3275;DHT22;1649;53.672;10.064;2022-12-26T13:19:52;9.50;99.90
3275;DHT22;1649;53.672;10.064;2022-12-26T13:22:25;9.50;99.90
3275;DHT22;1649;53.672;10.064;2022-12-26T13:24:58;9.40;99.90
3275;DHT22;1649;53.672;10.064;2022-12-26T13:27:32;9.40;99.90
3275;DHT22;1649;53.672;10.064;2022-12-26T13:29:59;9.40;99.90
3275;DHT22;1649;53.672;10.064;2022-12-26T13:32:28;9.40;99.90
3275;DHT22;1649;53.672;10.064;2022-12-26T13:34:56;9.40;99.90
3275;DHT22;1649;53.672;10.064;2022-12-26T13:37:51;9.40;99.90
3275;DHT22;1649;53.672;10.064;2022-12-26T13:40:19;9.30;99.90
3275;DHT22;1649;53.672;10.064;2022-12-26T13:45:54;9.20;99.90
3275;DHT22;1649;53.672;10.064;2022-12-26T13:51:03;8.90;99.90
3275;DHT22;1649;53.672;10.064;2022-12-26T13:53:31;8.60;99.90
3275;DHT22;1649;53.672;10.064;2022-12-26T13:55:58;8.40;99.90
3275;DHT22;1649;53.672;10.064;2022-12-26T14:09:57;7.60;99.90
3275;DHT22;1649;53.672;10.064;2022-12-26T14:35:05;7.30;99.90
3275;DHT22;1649;53.672;10.064;2022-12-26T14:37:48;7.20;99.90
3275;DHT22;1649;53.672;10.064;2022-12-26T14:40:31;7.10;99.90
3275;DHT22;1649;53.672;10.064;2022-12-26T14:45:42;7.10;99.90
3275;DHT22;1649;53.672;10.064;2022-12-26T14:50:46;7.00;99.90
3275;DHT22;1649;53.672;10.064;2022-12-26T14:56:44;7.00;99.90
3275;DHT22;1649;53.672;10.064;2022-12-26T14:58:46;6.90;99.90
3275;DHT22;1649;53.672;10.064;2022-12-26T15:06:49;6.80;99.90
3275;DHT22;1649;53.672;10.064;2022-12-26T15:12:46;6.80;99.90
3275;DHT22;1649;53.672;10.064;2022-12-26T15:18:36;6.80;99.90
3275;DHT22;1649;53.672;10.064;2022-12-26T15:21:37;6.70;99.90
3275;DHT22;1649;53.672;10.064;2022-12-26T15:27:07;6.60;99.90
3275;DHT22;1649;53.672;10.064;2022-12-26T15:32:51;6.60;99.90
3275;DHT22;1649;53.672;10.064;2022-12-26T15:35:45;6.50;99.90
3275;DHT22;1649;53.672;10.064;2022-12-26T15:38:38;6.40;99.90
3275;DHT22;1649;53.672;10.064;2022-12-26T15:41:13;6.40;99.90
3275;DHT22;1649;53.672;10.064;2022-12-26T15:43:48;6.40;99.90
3275;DHT22;1649;53.672;10.064;2022-12-26T15:46:32;6.30;99.90
3275;DHT22;1649;53.672;10.064;2022-12-26T15:49:21;6.20;99.90
3275;DHT22;1649;53.672;10.064;2022-12-26T15:52:00;6.10;99.90
3275;DHT22;1649;53.672;10.064;2022-12-26T15:54:37;6.00;99.90
3275;DHT22;1649;53.672;10.064;2022-12-26T15:59:57;5.80;99.90
3275;DHT22;1649;53.672;10.064;2022-12-26T16:05:10;5.70;99.90
3275;DHT22;1649;53.672;10.064;2022-12-26T16:07:47;5.70;99.90
3275;DHT22;1649;53.672;10.064;2022-12-26T16:15:48;5.70;99.90
3275;DHT22;1649;53.672;10.064;2022-12-26T16:18:21;5.70;99.90
3275;DHT22;1649;53.672;10.064;2022-12-26T16:20:48;5.70;99.90
3275;DHT22;1649;53.672;10.064;2022-12-26T16:23:36;5.70;99.90
3275;DHT22;1649;53.672;10.064;2022-12-26T16:26:03;5.60;99.90
3275;DHT22;1649;53.672;10.064;2022-12-26T16:28:42;5.60;99.90
3275;DHT22;1649;53.672;10.064;2022-12-26T16:31:11;5.50;99.90
3275;DHT22;1649;53.672;10.064;2022-12-26T16:33:42;5.40;99.90
3275;DHT22;1649;53.672;10.064;2022-12-26T16:36:09;5.30;99.90
3275;DHT22;1649;53.672;10.064;2022-12-26T16:38:36;5.30;99.90
3275;DHT22;1649;53.672;10.064;2022-12-26T16:44:27;5.20;99.90
3275;DHT22;1649;53.672;10.064;2022-12-26T16:46:53;5.20;99.90
3275;DHT22;1649;53.672;10.064;2022-12-26T16:49:20;5.20;99.90
3275;DHT22;1649;53.672;10.064;2022-12-26T16:51:48;5.20;99.90
3275;DHT22;1649;53.672;10.064;2022-12-26T16:57:09;5.30;99.90
3275;DHT22;1649;53.672;10.064;2022-12-26T16:59:55;5.40;99.90
3275;DHT22;1649;53.672;10.064;2022-12-26T17:02:28;5.30;99.90
3275;DHT22;1649;53.672;10.064;2022-12-26T17:05:22;5.20;99.90
3275;DHT22;1649;53.672;10.064;2022-12-26T17:07:51;5.20;99.90
3275;DHT22;1649;53.672;10.064;2022-12-26T17:10:26;5.10;99.90
3275;DHT22;1649;53.672;10.064;2022-12-26T17:12:53;5.00;99.90
3275;DHT22;1649;53.672;10.064;2022-12-26T17:15:30;4.90;99.90
3275;DHT22;1649;53.672;10.064;2022-12-26T17:17:58;4.90;99.90
3275;DHT22;1649;53.672;10.064;2022-12-26T17:22:54;4.80;99.90
3275;DHT22;1649;53.672;10.064;2022-12-26T17:25:27;4.70;99.90
3275;DHT22;1649;53.672;10.064;2022-12-26T17:30:43;4.70;99.90
3275;DHT22;1649;53.672;10.064;2022-12-26T17:35:37;4.70;99.90
3275;DHT22;1649;53.672;10.064;2022-12-26T17:38:10;4.80;99.90
3275;DHT22;1649;53.672;10.064;2022-12-26T17:40:39;4.70;99.90
3275;DHT22;1649;53.672;10.064;2022-12-26T17:45:42;4.70;99.90
3275;DHT22;1649;53.672;10.064;2022-12-26T17:48:09;4.70;99.90
3275;DHT22;1649;53.672;10.064;2022-12-26T17:50:37;4.70;99.90
3275;DHT22;1649;53.672;10.064;2022-12-26T17:53:22;4.60;99.90
3275;DHT22;1649;53.672;10.064;2022-12-26T17:55:50;4.60;99.90
3275;DHT22;1649;53.672;10.064;2022-12-26T17:58:16;4.60;99.90
3275;DHT22;1649;53.672;10.064;2022-12-26T18:00:42;4.50;99.90
3275;DHT22;1649;53.672;10.064;2022-12-26T18:03:08;4.60;99.90
3275;DHT22;1649;53.672;10.064;2022-12-26T18:05:35;4.60;99.90
3275;DHT22;1649;53.672;10.064;2022-12-26T18:08:01;4.50;99.90
3275;DHT22;1649;53.672;10.064;2022-12-26T18:10:30;4.50;99.90
3275;DHT22;1649;53.672;10.064;2022-12-26T18:12:56;4.60;99.90
3275;DHT22;1649;53.672;10.064;2022-12-26T18:15:24;4.50;99.90
3275;DHT22;1649;53.672;10.064;2022-12-26T18:17:50;4.50;99.90
3275;DHT22;1649;53.672;10.064;2022-12-26T18:20:27;4.40;99.90
3275;DHT22;1649;53.672;10.064;2022-12-26T18:22:54;4.40;99.90
3275;DHT22;1649;53.672;10.064;2022-12-26T18:25:22;4.40;99.90
3275;DHT22;1649;53.672;10.064;2022-12-26T18:27:49;4.40;99.90
3275;DHT22;1649;53.672;10.064;2022-12-26T18:30:20;4.40;99.90
3275;DHT22;1649;53.672;10.064;2022-12-26T18:32:47;4.40;99.90
3275;DHT22;1649;53.672;10.064;2022-12-26T18:35:13;4.40;99.90
3275;DHT22;1649;53.672;10.064;2022-12-26T18:37:40;4.40;99.90
3275;DHT22;1649;53.672;10.064;2022-12-26T18:40:27;4.30;99.90
3275;DHT22;1649;53.672;10.064;2022-12-26T18:42:53;4.30;99.90
3275;DHT22;1649;53.672;10.064;2022-12-26T18:45:19;4.30;99.90
3275;DHT22;1649;53.672;10.064;2022-12-26T18:47:45;4.20;99.90
3275;DHT22;1649;53.672;10.064;2022-12-26T18:50:11;4.20;99.90
3275;DHT22;1649;53.672;10.064;2022-12-26T18:52:38;4.20;99.90
3275;DHT22;1649;53.672;10.064;2022-12-26T18:55:04;4.20;99.90
3275;DHT22;1649;53.672;10.064;2022-12-26T18:57:29;4.20;99.90
3275;DHT22;1649;53.672;10.064;2022-12-26T18:59:55;4.20;99.90
3275;DHT22;1649;53.672;10.064;2022-12-26T19:02:20;4.30;99.90
3275;DHT22;1649;53.672;10.064;2022-12-26T19:04:47;4.40;99.90
3275;DHT22;1649;53.672;10.064;2022-12-26T19:07:13;4.20;99.90
3275;DHT22;1649;53.672;10.064;2022-12-26T19:09:46;4.20;99.90
3275;DHT22;1649;53.672;10.064;2022-12-26T19:12:13;4.20;99.90
3275;DHT22;1649;53.672;10.064;2022-12-26T19:14:39;4.20;99.90
3275;DHT22;1649;53.672;10.064;2022-12-26T19:17:05;4.20;99.90
3275;DHT22;1649;53.672;10.064;2022-12-26T19:19:30;4.10;99.90
3275;DHT22;1649;53.672;10.064;2022-12-26T19:21:56;4.20;99.90
3275;DHT22;1649;53.672;10.064;2022-12-26T19:24:22;4.20;99.90
3275;DHT22;1649;53.672;10.064;2022-12-26T19:26:48;4.10;99.90
3275;DHT22;1649;53.672;10.064;2022-12-26T19:29:14;4.10;99.90
3275;DHT22;1649;53.672;10.064;2022-12-26T19:31:40;4.10;99.90
3275;DHT22;1649;53.672;10.064;2022-12-26T19:34:06;4.20;99.90
3275;DHT22;1649;53.672;10.064;2022-12-26T19:36:31;4.10;99.90
3275;DHT22;1649;53.672;10.064;2022-12-26T19:38:57;4.10;99.90
3275;DHT22;1649;53.672;10.064;2022-12-26T19:41:22;4.20;99.90
3275;DHT22;1649;53.672;10.064;2022-12-26T19:43:54;4.10;99.90
3275;DHT22;1649;53.672;10.064;2022-12-26T19:46:20;4.20;99.90
3275;DHT22;1649;53.672;10.064;2022-12-26T19:48:45;4.20;99.90
3275;DHT22;1649;53.672;10.064;2022-12-26T19:51:12;4.10;99.90